Time;durP1;ratioP1;P1;durP2;ratioP2;P2;SDS_P1;SDS_P2;PMS_P1;PMS_P2;Temp;Humidity;BMP_temperature;BMP_pressure;BME280_temperature;BME280_humidity;BME280_pressure;Samples;Min_cycle;Max_cycle;Signal;HPM_P1;HPM_P2
2021/11/10 00:00:34;;;;;;;9.80;6.10;;;;;;;2.55;90.90;98168.15;105263;1309;27015;-84
2021/11/10 00:03:13;;;;;;;;;;;;;;;2.52;90.76;98170.53;105373;1313;28489;-85
2021/11/10 00:05:44;;;;;;;12.00;6.50;;;;;;;2.44;90.81;98176.59;105335;1310;26282;-84
2021/11/10 00:08:15;;;;;;;10.40;6.30;;;;;;;2.36;90.54;98181.77;105277;1310;26446;-85
2021/11/10 00:10:44;;;;;;;;;;;;;;;2.29;90.51;98184.02;105340;1310;26019;-85
2021/11/10 00:13:21;;;;;;;11.00;6.40;;;;;;;2.20;90.52;98184.89;105306;1310;25367;-85
2021/11/10 00:15:53;;;;;;;10.50;6.10;;;;;;;2.17;90.78;98177.13;105394;1309;26127;-85
2021/11/10 00:18:24;;;;;;;10.00;5.70;;;;;;;2.19;91.08;98179.45;105334;1314;31362;-85
2021/11/10 00:20:54;;;;;;;8.90;5.20;;;;;;;2.18;91.00;98185.39;105381;1313;31460;-85
2021/11/10 00:23:25;;;;;;;12.90;7.10;;;;;;;2.19;91.23;98191.89;105402;1309;26368;-85
2021/11/10 00:25:56;;;;;;;11.70;7.20;;;;;;;2.18;91.33;98191.34;105339;1313;26496;-83
2021/11/10 00:28:27;;;;;;;12.30;9.00;;;;;;;2.10;91.33;98190.38;105288;1308;27887;-84
2021/11/10 00:30:57;;;;;;;13.90;8.80;;;;;;;1.97;91.19;98190.33;105251;1314;25560;-84
2021/11/10 00:33:28;;;;;;;14.40;9.00;;;;;;;1.84;91.09;98183.70;105273;1309;24732;-84
2021/11/10 00:35:59;;;;;;;14.50;8.90;;;;;;;1.75;91.15;98181.95;105290;1309;26903;-84
2021/11/10 00:38:29;;;;;;;16.10;9.20;;;;;;;1.66;90.66;98181.52;105307;1309;25078;-84
2021/11/10 00:41:00;;;;;;;13.00;7.90;;;;;;;1.50;90.57;98181.15;105214;1310;27561;-85
2021/11/10 00:43:31;;;;;;;13.10;8.10;;;;;;;1.37;90.67;98179.80;105330;1310;27829;-84
2021/11/10 00:46:02;;;;;;;12.70;7.30;;;;;;;1.20;90.54;98184.40;105259;1309;27061;-85
2021/11/10 00:48:33;;;;;;;9.90;6.40;;;;;;;1.00;90.88;98182.02;105335;1309;26326;-85
2021/11/10 00:51:04;;;;;;;15.80;8.30;;;;;;;0.98;91.36;98185.77;105269;1315;27175;-85
2021/11/10 00:53:35;;;;;;;13.90;7.70;;;;;;;1.00;91.80;98184.58;105352;1309;26365;-85
2021/11/10 00:56:06;;;;;;;10.20;6.80;;;;;;;1.07;92.22;98192.14;105319;1310;26583;-84
2021/11/10 00:58:37;;;;;;;13.50;7.10;;;;;;;1.19;92.35;98189.70;105342;1314;28109;-84
2021/11/10 01:01:08;;;;;;;13.00;8.90;;;;;;;1.33;92.86;98184.19;105340;1310;26531;-86
2021/11/10 01:03:39;;;;;;;15.40;9.80;;;;;;;1.50;93.18;98180.46;105342;1316;28104;-85
2021/11/10 01:06:10;;;;;;;15.10;9.30;;;;;;;1.58;93.14;98177.73;105339;1309;28079;-86
2021/11/10 01:08:40;;;;;;;14.60;9.80;;;;;;;1.62;92.97;98181.07;105253;1316;28508;-85
2021/11/10 01:11:11;;;;;;;16.50;10.60;;;;;;;1.61;92.79;98178.08;105347;1309;28887;-85
2021/11/10 01:13:42;;;;;;;15.00;10.30;;;;;;;1.59;92.73;98170.17;105182;1314;28854;-85
2021/11/10 01:16:13;;;;;;;15.00;9.70;;;;;;;1.56;92.39;98166.00;105305;1314;25619;-85
2021/11/10 01:18:44;;;;;;;15.80;10.50;;;;;;;1.57;92.63;98168.34;105259;1309;27963;-85
2021/11/10 01:21:14;;;;;;;17.20;9.60;;;;;;;1.60;92.66;98157.55;105256;1309;29134;-85
2021/11/10 01:23:46;;;;;;;16.60;11.50;;;;;;;1.59;92.52;98157.30;105340;1314;26269;-85
2021/11/10 01:26:16;;;;;;;16.50;10.60;;;;;;;1.64;92.62;98162.26;105314;1309;28591;-85
2021/11/10 01:28:47;;;;;;;17.20;10.70;;;;;;;1.66;92.53;98164.61;105246;1314;32923;-85
2021/11/10 01:31:17;;;;;;;16.00;10.50;;;;;;;1.69;92.76;98153.89;105350;1313;24935;-85
2021/11/10 01:33:48;;;;;;;18.20;12.10;;;;;;;1.74;92.60;98156.48;105294;1313;28282;-85
2021/11/10 01:36:20;;;;;;;18.80;12.10;;;;;;;1.75;92.60;98157.89;105324;1310;27678;-85
2021/11/10 01:38:52;;;;;;;21.50;13.10;;;;;;;1.81;92.54;98158.99;105361;1313;28034;-84
2021/11/10 01:41:22;;;;;;;18.10;12.20;;;;;;;1.84;92.57;98148.88;105386;1310;26580;-85
2021/11/10 01:43:53;;;;;;;18.10;12.30;;;;;;;1.85;92.34;98147.15;105384;1313;25340;-86
2021/11/10 01:46:24;;;;;;;18.10;10.70;;;;;;;1.87;92.40;98144.11;105315;1309;27015;-85
2021/11/10 01:48:55;;;;;;;20.30;11.00;;;;;;;1.90;92.26;98132.19;105397;1310;24854;-84
2021/11/10 01:51:25;;;;;;;18.60;12.50;;;;;;;1.88;92.26;98135.83;105406;1310;26533;-85
2021/11/10 01:53:56;;;;;;;19.50;13.20;;;;;;;1.85;92.32;98129.81;105310;1310;26922;-85
2021/11/10 01:56:27;;;;;;;16.50;10.60;;;;;;;1.82;92.10;98127.31;105361;1310;27628;-85
2021/11/10 01:58:57;;;;;;;17.80;11.70;;;;;;;1.78;92.13;98125.34;105279;1315;27368;-84
2021/11/10 02:01:28;;;;;;;17.40;11.20;;;;;;;1.72;92.43;98120.79;105236;1310;26688;-85
2021/11/10 02:03:59;;;;;;;22.10;11.90;;;;;;;1.66;92.20;98116.67;105281;1310;27657;-84
2021/11/10 02:06:29;;;;;;;15.90;10.00;;;;;;;1.59;92.39;98125.73;105256;1313;26786;-85
2021/11/10 02:09:00;;;;;;;19.00;12.70;;;;;;;1.54;92.53;98128.73;105317;1313;27428;-85
2021/11/10 02:11:31;;;;;;;19.10;12.70;;;;;;;1.45;92.26;98121.44;105269;1316;25009;-85
2021/11/10 02:14:03;;;;;;;18.70;13.20;;;;;;;1.37;92.47;98116.34;105204;1313;26271;-85
2021/11/10 02:16:37;;;;;;;19.80;11.40;;;;;;;1.30;92.79;98118.76;105306;1310;28297;-84
2021/11/10 02:19:08;;;;;;;20.80;12.50;;;;;;;1.25;92.64;98121.41;105293;1314;28922;-85
2021/11/10 02:21:43;;;;;;;19.50;11.10;;;;;;;1.22;92.47;98114.70;105294;1310;25848;-85
2021/11/10 02:24:14;;;;;;;18.40;11.60;;;;;;;1.19;92.66;98116.77;105262;1310;24965;-85
2021/11/10 02:26:46;;;;;;;19.60;11.50;;;;;;;1.15;92.54;98121.15;105363;1310;27991;-85
2021/11/10 02:29:19;;;;;;;18.40;11.20;;;;;;;1.12;92.63;98119.11;105326;1310;24797;-85
2021/11/10 02:31:51;;;;;;;17.70;11.00;;;;;;;1.10;92.27;98116.23;105297;1316;28869;-85
2021/11/10 02:34:22;;;;;;;19.60;11.80;;;;;;;1.07;92.12;98116.27;105293;1309;25796;-85
2021/11/10 02:36:53;;;;;;;20.80;12.70;;;;;;;1.07;92.54;98113.50;105384;1310;25976;-85
2021/11/10 02:39:24;;;;;;;16.40;11.60;;;;;;;1.08;92.64;98111.42;105408;1313;26539;-85
2021/11/10 02:41:55;;;;;;;15.70;10.80;;;;;;;1.10;92.67;98111.73;105322;1309;26041;-85
2021/11/10 02:44:26;;;;;;;16.30;10.70;;;;;;;1.25;93.23;98113.63;105386;1309;27944;-85
2021/11/10 02:46:56;;;;;;;17.40;10.80;;;;;;;1.43;93.27;98115.45;105300;1314;29495;-85
2021/11/10 02:49:28;;;;;;;16.70;11.00;;;;;;;1.51;93.10;98116.06;105295;1310;35256;-85
2021/11/10 02:52:01;;;;;;;18.40;11.20;;;;;;;1.59;93.10;98122.57;105230;1309;27202;-85
2021/11/10 02:54:35;;;;;;;16.70;9.90;;;;;;;1.66;92.74;98116.52;105312;1316;24492;-85
2021/11/10 02:57:08;;;;;;;13.70;8.10;;;;;;;1.70;92.60;98124.39;105352;1309;28872;-85
2021/11/10 02:59:39;;;;;;;12.90;7.60;;;;;;;1.70;92.28;98126.32;105353;1309;25540;-85
2021/11/10 03:02:10;;;;;;;18.90;11.30;;;;;;;1.71;92.18;98125.45;105327;1310;26073;-85
2021/11/10 03:04:46;;;;;;;16.50;11.30;;;;;;;1.70;92.23;98126.64;105311;1316;33826;-85
2021/11/10 03:07:17;;;;;;;15.40;10.00;;;;;;;1.67;91.87;98119.54;105340;1310;27725;-86
2021/11/10 03:09:48;;;;;;;15.00;9.40;;;;;;;1.64;91.80;98107.53;105334;1310;26616;-85
2021/11/10 03:12:20;;;;;;;13.20;8.50;;;;;;;1.64;92.03;98106.36;105341;1309;28389;-85
2021/11/10 03:14:51;;;;;;;11.40;7.20;;;;;;;1.63;91.87;98104.95;105375;1310;25608;-84
2021/11/10 03:17:22;;;;;;;13.20;8.50;;;;;;;1.66;91.86;98095.25;105423;1314;24207;-85
2021/11/10 03:19:53;;;;;;;11.40;7.00;;;;;;;1.80;91.76;98098.94;105351;1309;27163;-85
2021/11/10 03:22:24;;;;;;;16.00;9.40;;;;;;;1.87;91.62;98097.77;105368;1309;25484;-85
2021/11/10 03:24:54;;;;;;;15.60;10.00;;;;;;;1.90;91.64;98100.01;105387;1310;27013;-85
2021/11/10 03:27:26;;;;;;;17.10;10.80;;;;;;;1.90;91.49;98103.87;105366;1310;28918;-85
2021/11/10 03:29:56;;;;;;;15.10;9.60;;;;;;;1.89;91.38;98104.91;105325;1314;28748;-84
2021/11/10 03:32:27;;;;;;;13.60;8.90;;;;;;;1.91;91.19;98099.17;105333;1309;26216;-84
2021/11/10 03:34:58;;;;;;;9.30;6.60;;;;;;;2.00;91.23;98090.48;105200;1310;40557;-85
2021/11/10 03:37:29;;;;;;;10.50;6.90;;;;;;;2.12;91.15;98095.61;105318;1316;24925;-85
2021/11/10 03:40:00;;;;;;;8.80;5.60;;;;;;;2.21;90.92;98082.26;105339;1310;26901;-84
2021/11/10 03:42:31;;;;;;;13.70;7.50;;;;;;;2.27;90.69;98087.23;105322;1314;28835;-86
2021/11/10 03:45:03;;;;;;;14.10;8.90;;;;;;;2.30;90.19;98089.46;105288;1315;35041;-85
2021/11/10 03:47:34;;;;;;;15.60;9.20;;;;;;;2.33;90.22;98085.30;105335;1310;26376;-86
2021/11/10 03:50:06;;;;;;;9.10;5.40;;;;;;;2.41;89.94;98081.58;105338;1310;26795;-85
2021/11/10 03:52:37;;;;;;;14.10;6.20;;;;;;;2.47;89.65;98081.49;105378;1310;25727;-85
2021/11/10 03:55:09;;;;;;;14.00;7.60;;;;;;;2.51;89.34;98082.69;105344;1309;26235;-85
2021/11/10 03:57:40;;;;;;;10.50;5.40;;;;;;;2.52;89.32;98077.25;105325;1309;27965;-85
2021/11/10 04:00:12;;;;;;;10.10;6.50;;;;;;;2.54;89.00;98079.58;105308;1310;29533;-86
2021/11/10 04:02:43;;;;;;;11.40;6.80;;;;;;;2.49;88.63;98077.68;105360;1309;25011;-85
2021/11/10 04:05:14;;;;;;;15.90;8.70;;;;;;;2.44;88.62;98076.00;105350;1311;27021;-86
2021/11/10 04:07:45;;;;;;;9.60;5.60;;;;;;;2.40;88.57;98078.19;105295;1309;31036;-85
2021/11/10 04:10:16;;;;;;;11.90;6.40;;;;;;;2.44;88.64;98081.48;105244;1314;27225;-86
2021/11/10 04:12:47;;;;;;;7.90;4.90;;;;;;;2.54;88.77;98083.04;105296;1309;25981;-85
2021/11/10 04:15:18;;;;;;;6.70;3.90;;;;;;;2.75;88.34;98080.44;105320;1309;27193;-86
2021/11/10 04:17:49;;;;;;;9.60;5.40;;;;;;;2.87;87.89;98084.14;105318;1310;27676;-85
2021/11/10 04:20:19;;;;;;;11.00;7.00;;;;;;;2.86;87.46;98085.77;105350;1309;26415;-85
2021/11/10 04:22:50;;;;;;;6.30;4.50;;;;;;;2.88;87.07;98074.95;105331;1309;27157;-86
2021/11/10 04:25:21;;;;;;;7.50;5.30;;;;;;;2.89;86.94;98073.76;105367;1309;26074;-86
2021/11/10 04:27:53;;;;;;;11.40;7.00;;;;;;;2.85;86.65;98071.01;105340;1310;28922;-85
2021/11/10 04:30:24;;;;;;;14.50;7.00;;;;;;;2.82;86.65;98076.27;105387;1316;33993;-85
2021/11/10 04:32:54;;;;;;;8.60;4.50;;;;;;;2.76;86.65;98073.27;105330;1313;27460;-85
2021/11/10 04:35:25;;;;;;;10.40;5.80;;;;;;;2.78;86.69;98063.00;105425;1314;26370;-85
2021/11/10 04:37:56;;;;;;;10.10;5.80;;;;;;;2.77;86.51;98061.56;105415;1310;24563;-85
2021/11/10 04:40:27;;;;;;;8.70;5.60;;;;;;;2.72;86.50;98060.29;105319;1310;26358;-85
2021/11/10 04:42:57;;;;;;;10.20;5.60;;;;;;;2.72;86.63;98048.89;105328;1314;26699;-85
2021/11/10 04:45:31;;;;;;;7.10;4.30;;;;;;;2.79;86.43;98045.48;105296;1309;28207;-85
2021/11/10 04:48:03;;;;;;;11.30;5.90;;;;;;;2.86;86.26;98044.73;105371;1309;25216;-86
2021/11/10 04:50:34;;;;;;;7.70;4.50;;;;;;;2.91;86.10;98039.46;105341;1315;25763;-85
2021/11/10 04:53:06;;;;;;;9.40;6.10;;;;;;;2.97;85.88;98035.52;105359;1309;26022;-85
2021/11/10 04:55:37;;;;;;;6.60;4.90;;;;;;;3.01;85.72;98035.02;105305;1316;26136;-85
2021/11/10 04:58:08;;;;;;;8.00;5.80;;;;;;;3.03;85.54;98033.45;105330;1315;26195;-85
2021/11/10 05:00:39;;;;;;;8.10;4.50;;;;;;;3.01;85.32;98034.45;105361;1314;30593;-85
2021/11/10 05:03:10;;;;;;;8.80;4.90;;;;;;;3.05;85.26;98035.75;105382;1310;26038;-85
2021/11/10 05:05:41;;;;;;;6.90;4.60;;;;;;;3.10;85.01;98031.43;105343;1315;25545;-85
2021/11/10 05:08:12;;;;;;;7.60;5.20;;;;;;;3.12;84.85;98029.06;105336;1316;26284;-85
2021/11/10 05:10:43;;;;;;;7.40;5.30;;;;;;;3.21;84.66;98024.56;105297;1315;27240;-86
2021/11/10 05:13:13;;;;;;;12.10;5.50;;;;;;;3.24;84.36;98022.13;105322;1309;25973;-85
2021/11/10 05:15:44;;;;;;;8.70;4.70;;;;;;;3.25;84.18;98017.39;105349;1314;25758;-85
2021/11/10 05:18:15;;;;;;;7.60;5.60;;;;;;;3.25;83.92;98017.10;105324;1310;27695;-86
2021/11/10 05:20:47;;;;;;;6.70;4.10;;;;;;;3.29;83.56;98021.66;105326;1309;28982;-85
2021/11/10 05:23:18;;;;;;;6.70;4.40;;;;;;;3.36;83.20;98023.72;105273;1315;40831;-85
2021/11/10 05:25:49;;;;;;;8.10;4.30;;;;;;;3.36;83.13;98028.96;105177;1314;30191;-86
2021/11/10 05:28:19;;;;;;;8.60;5.70;;;;;;;3.35;82.85;98031.23;105313;1309;27281;-85
2021/11/10 05:30:50;;;;;;;9.30;3.80;;;;;;;3.33;82.85;98032.99;105245;1316;29131;-85
2021/11/10 05:33:21;;;;;;;7.20;4.40;;;;;;;3.33;82.70;98030.90;105299;1309;26811;-86
2021/11/10 05:35:52;;;;;;;8.20;4.70;;;;;;;3.32;82.60;98024.93;105281;1313;27113;-85
2021/11/10 05:38:23;;;;;;;7.80;4.40;;;;;;;3.30;82.60;98028.08;105152;1310;249790;-85
2021/11/10 05:40:54;;;;;;;6.30;3.90;;;;;;;3.28;82.47;98031.98;105205;1315;27176;-86
2021/11/10 05:43:24;;;;;;;11.60;6.80;;;;;;;3.30;82.42;98039.00;105303;1309;28272;-85
2021/11/10 05:45:56;;;;;;;7.10;5.10;;;;;;;3.37;82.21;98039.30;105327;1309;26851;-86
2021/11/10 05:48:28;;;;;;;9.00;5.80;;;;;;;3.41;82.21;98041.38;105179;1312;26180;-84
2021/11/10 05:50:59;;;;;;;10.10;5.20;;;;;;;3.41;81.95;98043.64;105258;1312;37631;-86
2021/11/10 05:53:30;;;;;;;7.00;4.60;;;;;;;3.42;81.80;98045.63;105149;1315;28750;-85
2021/11/10 05:56:01;;;;;;;6.80;4.40;;;;;;;3.46;81.55;98042.92;105162;1315;26515;-85
2021/11/10 05:58:33;;;;;;;8.10;5.80;;;;;;;3.45;81.43;98047.91;105218;1315;27869;-85
2021/11/10 06:01:04;;;;;;;9.00;5.40;;;;;;;3.37;81.38;98040.88;105271;1310;27444;-85
2021/11/10 06:03:35;;;;;;;5.40;3.50;;;;;;;3.27;81.49;98046.57;105151;1314;29780;-85
2021/11/10 06:06:06;;;;;;;6.10;3.80;;;;;;;3.21;81.76;98037.70;105272;1309;27883;-85
2021/11/10 06:08:37;;;;;;;10.30;5.40;;;;;;;3.20;81.74;98031.94;105198;1308;43082;-85
2021/11/10 06:11:09;;;;;;;12.40;4.80;;;;;;;3.24;81.68;98038.61;105150;1315;36364;-85
2021/11/10 06:13:41;;;;;;;10.40;7.20;;;;;;;3.50;81.79;98035.05;105171;1313;30167;-85
2021/11/10 06:16:12;;;;;;;13.00;7.40;;;;;;;3.99;81.75;98042.61;105288;1309;31159;-86
2021/11/10 06:18:43;;;;;;;20.00;6.10;;;;;;;4.37;80.84;98043.27;105179;1315;33344;-85
2021/11/10 06:21:15;;;;;;;11.60;7.20;;;;;;;4.71;80.13;98033.16;105283;1309;28326;-85
2021/11/10 06:23:45;;;;;;;9.90;6.30;;;;;;;4.98;79.19;98038.67;105216;1316;27343;-86
2021/11/10 06:26:16;;;;;;;10.00;6.30;;;;;;;5.20;78.69;98038.66;105295;1314;26428;-85
2021/11/10 06:28:48;;;;;;;8.00;5.90;;;;;;;5.54;77.81;98042.36;105316;1310;30197;-85
2021/11/10 06:31:18;;;;;;;10.50;6.00;;;;;;;5.76;76.84;98042.02;105324;1313;27075;-86
2021/11/10 06:33:48;;;;;;;;;;;;;;;5.89;76.25;98053.06;105358;1313;27927;-86
2021/11/10 06:36:19;;;;;;;10.30;6.60;;;;;;;6.01;75.51;98047.23;105310;1310;46538;-85
2021/11/10 06:38:48;;;;;;;;;;;;;;;6.04;75.01;98048.64;105317;1309;29548;-85
2021/11/10 06:41:19;;;;;;;9.40;6.40;;;;;;;6.10;74.29;98048.07;105321;1316;25748;-85
2021/11/10 06:43:51;;;;;;;9.30;6.20;;;;;;;6.21;74.00;98049.65;105337;1309;26414;-85
2021/11/10 06:46:22;;;;;;;10.30;6.20;;;;;;;6.45;73.24;98052.41;105402;1309;26486;-85
2021/11/10 06:48:54;;;;;;;8.70;6.10;;;;;;;6.64;73.03;98054.22;105383;1315;25544;-85
2021/11/10 06:51:24;;;;;;;7.90;6.20;;;;;;;6.97;72.42;98050.58;105415;1315;28826;-85
2021/11/10 06:53:53;;;;;;;;;;;;;;;7.06;71.52;98054.52;105352;1314;38456;-85
2021/11/10 06:56:24;;;;;;;7.80;5.70;;;;;;;7.25;70.86;98054.02;105425;1316;26536;-85
2021/11/10 06:58:53;;;;;;;;;;;;;;;7.42;70.94;98058.53;105373;1309;27565;-85
2021/11/10 07:01:24;;;;;;;7.40;5.60;;;;;;;7.65;70.16;98052.78;105359;1313;25175;-85
2021/11/10 07:03:53;;;;;;;;;;;;;;;7.81;69.35;98052.48;105404;1314;25628;-85
2021/11/10 07:06:24;;;;;;;7.30;5.30;;;;;;;7.95;69.16;98054.39;105402;1313;28147;-84
2021/11/10 07:08:53;;;;;;;;;;;;;;;8.21;67.78;98051.97;105404;1314;25752;-85
2021/11/10 07:11:23;;;;;;;7.00;4.70;;;;;;;8.23;68.06;98053.24;105317;1309;26433;-84
2021/11/10 07:13:52;;;;;;;;;;;;;;;8.60;67.32;98050.39;105340;1312;33443;-84
2021/11/10 07:16:23;;;;;;;9.30;5.20;;;;;;;8.72;66.83;98042.45;105376;1313;28220;-84
2021/11/10 07:18:54;;;;;;;6.70;4.40;;;;;;;8.98;66.64;98034.81;105366;1315;26436;-84
2021/11/10 07:21:23;;;;;;;;;;;;;;;9.02;65.18;98037.17;105308;1314;25202;-84
2021/11/10 07:23:54;;;;;;;6.90;4.50;;;;;;;9.11;64.73;98035.73;105381;1315;24797;-84
2021/11/10 07:26:25;;;;;;;6.10;4.00;;;;;;;9.02;63.88;98037.72;105411;1309;25304;-84
2021/11/10 07:28:56;;;;;;;6.30;3.90;;;;;;;9.00;63.62;98033.64;105413;1314;26555;-84
2021/11/10 07:31:27;;;;;;;8.30;4.20;;;;;;;9.08;62.92;98035.60;105414;1309;25958;-84
2021/11/10 07:33:59;;;;;;;7.60;4.80;;;;;;;8.93;62.43;98033.23;105334;1316;26338;-82
2021/11/10 07:36:30;;;;;;;6.60;4.20;;;;;;;8.97;63.35;98031.94;105313;1309;25191;-84
2021/11/10 07:39:02;;;;;;;7.20;4.30;;;;;;;8.89;62.27;98023.36;105317;1314;29707;-84
2021/11/10 07:41:34;;;;;;;7.60;5.00;;;;;;;8.60;62.07;98020.29;105321;1314;24768;-84
2021/11/10 07:44:07;;;;;;;6.10;3.50;;;;;;;8.53;62.88;98023.58;105318;1316;29590;-83
2021/11/10 07:46:38;;;;;;;9.10;4.80;;;;;;;8.61;62.66;98025.61;105308;1310;27185;-84
2021/11/10 07:49:07;;;;;;;;;;;;;;;8.75;63.37;98016.98;105358;1310;27608;-84
2021/11/10 07:51:39;;;;;;;7.30;4.20;;;;;;;8.73;62.79;98017.84;105329;1314;26768;-85
2021/11/10 07:54:10;;;;;;;6.90;3.80;;;;;;;8.83;62.77;98026.74;105335;1310;24998;-84
2021/11/10 07:56:40;;;;;;;7.30;4.10;;;;;;;8.93;62.97;98015.90;105363;1314;26201;-84
2021/11/10 07:59:10;;;;;;;;;;;;;;;9.01;62.26;98016.69;105314;1315;30465;-84
2021/11/10 08:01:41;;;;;;;4.70;3.70;;;;;;;8.98;62.09;98010.10;105307;1316;26147;-84
2021/11/10 08:04:12;;;;;;;7.40;3.70;;;;;;;9.06;62.46;98006.24;105345;1316;26678;-84
2021/11/10 08:06:42;;;;;;;6.90;4.20;;;;;;;9.09;61.59;98001.02;105309;1313;28644;-84
2021/11/10 08:09:13;;;;;;;7.20;4.10;;;;;;;9.01;61.85;98002.86;105319;1309;26307;-84
2021/11/10 08:11:44;;;;;;;6.40;3.70;;;;;;;8.92;61.84;97997.56;105356;1310;28071;-84
2021/11/10 08:14:14;;;;;;;6.00;3.60;;;;;;;8.72;61.52;98004.96;105306;1309;30174;-84
2021/11/10 08:16:43;;;;;;;;;;;;;;;8.53;61.96;98000.20;105325;1314;29117;-84
2021/11/10 08:19:14;;;;;;;8.20;4.60;;;;;;;8.42;62.42;98008.63;105304;1315;30629;-84
2021/11/10 08:21:45;;;;;;;7.00;4.30;;;;;;;8.32;62.40;98011.20;105302;1314;29756;-84
2021/11/10 08:24:15;;;;;;;6.60;4.50;;;;;;;8.15;62.69;98014.64;105349;1315;28009;-85
2021/11/10 08:26:46;;;;;;;7.00;3.70;;;;;;;8.10;62.99;98016.09;105367;1316;26298;-84
2021/11/10 08:29:17;;;;;;;8.10;3.70;;;;;;;8.07;63.36;98013.27;105316;1314;29723;-85
2021/11/10 08:31:48;;;;;;;6.50;4.20;;;;;;;7.87;63.44;98010.72;105281;1316;28449;-84
2021/11/10 08:34:19;;;;;;;6.90;4.50;;;;;;;7.92;63.93;98003.99;105313;1313;27436;-84
2021/11/10 08:36:50;;;;;;;6.40;4.00;;;;;;;7.83;63.83;98002.49;105302;1309;27461;-84
2021/11/10 08:39:21;;;;;;;4.30;2.60;;;;;;;7.84;64.53;98007.31;105309;1313;27960;-84
2021/11/10 08:41:52;;;;;;;6.10;4.30;;;;;;;7.68;63.54;97999.22;105328;1313;27815;-84
2021/11/10 08:44:24;;;;;;;6.90;4.00;;;;;;;7.62;64.80;98003.48;105340;1313;36085;-84
2021/11/10 08:46:57;;;;;;;5.40;3.70;;;;;;;7.65;64.59;97998.45;105377;1315;26405;-84
2021/11/10 08:49:28;;;;;;;4.70;2.70;;;;;;;7.57;64.88;97999.66;105309;1309;26020;-83
2021/11/10 08:51:59;;;;;;;8.90;4.80;;;;;;;7.60;65.32;97994.34;105325;1315;27348;-83
2021/11/10 08:54:30;;;;;;;6.50;4.20;;;;;;;7.62;65.07;97991.52;105338;1313;25493;-84
2021/11/10 08:57:02;;;;;;;8.40;4.90;;;;;;;7.54;65.21;97989.67;105321;1315;36266;-84
2021/11/10 08:59:33;;;;;;;6.20;3.30;;;;;;;7.56;65.98;97996.47;105034;1318;26524;-83
2021/11/10 09:02:04;;;;;;;5.80;3.60;;;;;;;7.71;65.86;97992.26;105253;1316;33108;-83
2021/11/10 09:04:35;;;;;;;6.60;4.20;;;;;;;7.79;65.90;97985.80;105335;1315;26505;-84
2021/11/10 09:07:08;;;;;;;4.80;3.40;;;;;;;7.88;65.85;97979.27;105316;1310;28388;-84
2021/11/10 09:09:39;;;;;;;6.60;3.80;;;;;;;7.96;65.74;97978.86;105313;1315;29035;-84
2021/11/10 09:12:11;;;;;;;4.50;3.30;;;;;;;8.18;65.99;97974.39;105304;1310;27597;-84
2021/11/10 09:14:44;;;;;;;6.50;4.00;;;;;;;8.38;64.88;97972.76;105308;1316;27545;-84
2021/11/10 09:17:14;;;;;;;6.30;3.80;;;;;;;8.41;64.99;97965.38;105299;1314;26446;-84
2021/11/10 09:19:45;;;;;;;6.10;3.80;;;;;;;8.54;64.56;97968.88;105277;1315;28999;-84
2021/11/10 09:22:16;;;;;;;7.80;4.80;;;;;;;8.60;63.78;97967.07;105327;1310;26592;-84
2021/11/10 09:24:47;;;;;;;6.90;3.90;;;;;;;8.62;63.60;97967.75;105317;1316;28267;-85
2021/11/10 09:27:18;;;;;;;5.40;3.80;;;;;;;8.59;62.51;97972.23;105303;1310;26695;-84
2021/11/10 09:29:48;;;;;;;6.10;4.00;;;;;;;8.52;62.76;97967.89;105286;1310;29493;-85
2021/11/10 09:32:18;;;;;;;;;;;;;;;8.45;62.75;97961.13;105338;1316;26056;-85
2021/11/10 09:34:49;;;;;;;5.60;3.70;;;;;;;8.51;63.08;97961.95;105375;1309;25547;-85
2021/11/10 09:37:22;;;;;;;7.30;3.50;;;;;;;8.47;62.98;97964.25;105294;1314;29840;-85
2021/11/10 09:39:53;;;;;;;8.40;3.70;;;;;;;8.49;63.12;97961.44;105375;1315;25830;-85
2021/11/10 09:42:25;;;;;;;5.70;3.80;;;;;;;8.67;63.41;97960.30;105398;1310;26731;-84
2021/11/10 09:44:58;;;;;;;6.90;4.00;;;;;;;8.85;63.40;97957.11;105395;1316;26943;-84
2021/11/10 09:47:30;;;;;;;8.90;4.10;;;;;;;8.99;62.53;97960.61;105313;1316;27383;-84
2021/11/10 09:50:01;;;;;;;6.30;3.50;;;;;;;9.09;62.17;97960.29;105339;1316;26286;-85
2021/11/10 09:52:32;;;;;;;6.20;3.80;;;;;;;9.16;61.73;97956.77;105342;1314;28064;-85
2021/11/10 09:55:03;;;;;;;7.20;3.70;;;;;;;9.24;61.54;97961.10;105308;1314;28938;-84
2021/11/10 09:57:35;;;;;;;5.10;3.60;;;;;;;9.31;61.32;97957.90;105322;1313;29378;-84
2021/11/10 10:00:10;;;;;;;6.70;3.70;;;;;;;9.48;61.59;97954.71;105243;1315;28328;-84
2021/11/10 10:02:44;;;;;;;8.20;4.60;;;;;;;9.64;61.76;97952.98;105265;1316;27852;-84
2021/11/10 10:05:16;;;;;;;7.40;4.50;;;;;;;9.76;61.73;97950.82;105318;1314;26542;-84
2021/11/10 10:07:52;;;;;;;5.40;3.60;;;;;;;9.93;61.64;97955.27;105302;1314;26328;-84
2021/11/10 10:10:24;;;;;;;6.90;4.10;;;;;;;9.99;60.68;97956.52;105356;1314;34717;-84
2021/11/10 10:12:57;;;;;;;6.10;3.50;;;;;;;10.01;60.99;97951.33;105380;1315;27857;-85
2021/11/10 10:15:29;;;;;;;5.50;3.50;;;;;;;10.09;60.72;97946.77;105316;1315;27369;-83
2021/11/10 10:18:00;;;;;;;8.80;4.60;;;;;;;10.16;59.99;97947.63;105308;1313;39173;-84
2021/11/10 10:20:34;;;;;;;6.30;4.00;;;;;;;10.17;60.21;97947.69;105276;1316;30133;-84
2021/11/10 10:23:09;;;;;;;6.80;4.20;;;;;;;10.22;60.06;97943.53;105305;1316;29009;-85
2021/11/10 10:25:44;;;;;;;7.70;4.70;;;;;;;10.29;59.69;97938.56;105282;1313;28908;-85
2021/11/10 10:28:17;;;;;;;7.10;4.00;;;;;;;10.31;59.41;97936.73;105342;1316;31010;-85
2021/11/10 10:30:50;;;;;;;6.90;3.60;;;;;;;10.36;58.98;97929.81;105239;1315;27379;-85
2021/11/10 10:33:25;;;;;;;8.10;4.10;;;;;;;10.34;58.52;97928.63;105337;1316;28328;-85
2021/11/10 10:35:57;;;;;;;5.90;3.70;;;;;;;10.37;59.19;97925.05;105365;1316;28447;-85
2021/11/10 10:38:32;;;;;;;6.60;3.90;;;;;;;10.39;58.40;97920.95;105297;1316;28073;-84
2021/11/10 10:41:05;;;;;;;5.90;3.90;;;;;;;10.40;58.82;97921.17;105318;1314;41084;-84
2021/11/10 10:43:43;;;;;;;6.00;3.50;;;;;;;10.51;59.06;97912.61;105308;1316;27566;-85
2021/11/10 10:46:15;;;;;;;6.50;3.60;;;;;;;10.63;58.66;97907.73;105311;1316;26371;-86
2021/11/10 10:48:46;;;;;;;4.90;3.20;;;;;;;10.67;57.89;97908.20;105294;1315;34773;-85
2021/11/10 10:51:20;;;;;;;5.50;3.40;;;;;;;10.61;57.69;97905.96;105246;1313;28419;-85
2021/11/10 10:53:53;;;;;;;6.10;3.40;;;;;;;10.66;57.69;97902.95;105246;1315;26765;-85
2021/11/10 10:56:28;;;;;;;7.50;3.90;;;;;;;10.75;57.85;97903.74;105342;1316;26819;-85
2021/11/10 10:59:03;;;;;;;7.20;3.70;;;;;;;10.86;57.90;97898.89;105308;1313;28612;-84
2021/11/10 11:01:35;;;;;;;6.50;3.80;;;;;;;10.98;56.97;97901.73;105325;1312;27082;-85
2021/11/10 11:04:08;;;;;;;5.70;3.60;;;;;;;11.00;56.70;97894.86;105277;1313;30141;-85
2021/11/10 11:06:43;;;;;;;5.80;3.10;;;;;;;11.06;56.66;97883.02;105338;1316;26767;-85
2021/11/10 11:09:18;;;;;;;5.80;3.30;;;;;;;11.06;55.48;97877.45;105321;1314;27177;-85
2021/11/10 11:11:56;;;;;;;3.80;2.80;;;;;;;11.04;55.53;97878.65;105341;1315;26118;-85
2021/11/10 11:14:42;;;;;;;5.30;3.30;;;;;;;11.14;55.65;97879.94;105296;1315;31821;-85
2021/11/10 11:17:32;;;;;;;6.40;3.50;;;;;;;11.20;55.03;97877.33;105223;1310;27432;-85
2021/11/10 11:20:06;;;;;;;4.90;2.70;;;;;;;11.26;55.02;97871.55;105325;1316;28418;-85
2021/11/10 11:22:51;;;;;;;3.90;2.60;;;;;;;11.27;53.92;97869.27;105356;1316;25771;-85
2021/11/10 11:25:24;;;;;;;6.40;2.50;;;;;;;11.21;53.30;97865.23;105354;1315;26681;-86
2021/11/10 11:28:09;;;;;;;2.40;2.10;;;;;;;11.23;53.43;97863.88;105370;1316;27734;-86
2021/11/10 11:30:43;;;;;;;4.20;2.50;;;;;;;11.30;53.42;97856.09;105328;1316;29814;-84
2021/11/10 11:33:17;;;;;;;4.30;2.70;;;;;;;11.37;53.54;97848.70;105355;1314;25336;-85
2021/11/10 11:35:50;;;;;;;4.60;2.50;;;;;;;11.47;53.47;97844.45;105244;1309;25530;-85
2021/11/10 11:38:23;;;;;;;5.50;2.80;;;;;;;11.52;53.18;97838.52;105338;1316;26939;-85
2021/11/10 11:40:57;;;;;;;4.20;3.00;;;;;;;11.55;53.06;97832.30;105239;1316;28365;-85
2021/11/10 11:43:30;;;;;;;5.10;3.20;;;;;;;11.61;53.35;97828.35;105280;1315;29079;-84
2021/11/10 11:46:01;;;;;;;5.50;3.10;;;;;;;11.67;53.15;97831.79;105314;1315;27359;-85
2021/11/10 11:48:33;;;;;;;6.50;3.90;;;;;;;11.74;53.13;97828.66;105309;1316;27138;-85
2021/11/10 11:51:06;;;;;;;7.80;3.60;;;;;;;11.76;53.15;97823.04;105346;1309;28150;-85